createdAt,value
2018-07-17T00:01:37.539Z,23.10
2018-07-17T00:04:12.542Z,23.10
2018-07-17T00:06:47.736Z,23.00
2018-07-17T00:09:22.571Z,23.00
2018-07-17T00:11:57.419Z,23.00
2018-07-17T00:14:32.157Z,22.70
2018-07-17T00:17:07.478Z,22.70
2018-07-17T00:19:42.301Z,22.70
2018-07-17T00:22:17.565Z,22.80
2018-07-17T00:24:52.448Z,22.80
2018-07-17T00:27:27.365Z,22.60
2018-07-17T00:30:02.797Z,22.40
2018-07-17T00:32:37.896Z,22.30
2018-07-17T00:35:13.196Z,22.40
2018-07-17T00:37:48.399Z,22.30
2018-07-17T00:42:58.033Z,22.20
2018-07-17T00:45:32.947Z,22.20
2018-07-17T00:48:08.590Z,22.20
2018-07-17T00:50:43.787Z,22.10
2018-07-17T00:53:18.592Z,22.20
2018-07-17T00:55:54.262Z,22.30
2018-07-17T00:58:29.510Z,22.30
2018-07-17T01:01:03.582Z,22.30
2018-07-17T01:03:44.710Z,22.40
2018-07-17T01:09:04.905Z,22.40
2018-07-17T01:11:45.210Z,22.30
2018-07-17T01:14:33.067Z,22.30
2018-07-17T01:17:08.379Z,22.40
2018-07-17T01:19:43.243Z,22.30
2018-07-17T01:22:19.168Z,22.30
2018-07-17T01:24:54.008Z,22.10
2018-07-17T01:27:28.760Z,22.00
2018-07-17T01:30:04.296Z,21.90
2018-07-17T01:32:39.339Z,21.90
2018-07-17T01:35:14.441Z,21.70
2018-07-17T01:37:50.818Z,21.70
2018-07-17T01:40:26.178Z,21.70
2018-07-17T01:43:01.397Z,21.80
2018-07-17T01:45:36.866Z,21.90
2018-07-17T01:48:12.302Z,22.00
2018-07-17T01:50:47.811Z,21.90
2018-07-17T01:53:22.812Z,22.00
2018-07-17T01:55:57.919Z,22.00
2018-07-17T01:58:32.966Z,22.00
2018-07-17T02:01:08.203Z,22.00
2018-07-17T02:03:44.136Z,22.00
2018-07-17T02:06:19.178Z,21.90
2018-07-17T02:11:28.991Z,22.10
2018-07-17T02:14:04.390Z,22.20
2018-07-17T02:16:39.450Z,22.20
2018-07-17T02:19:14.608Z,22.20
2018-07-17T02:21:50.335Z,22.10
2018-07-17T02:24:25.634Z,22.00
2018-07-17T02:27:00.906Z,22.00
2018-07-17T02:29:35.638Z,22.00
2018-07-17T02:32:10.934Z,22.20
2018-07-17T02:34:46.181Z,22.20
2018-07-17T02:39:56.373Z,21.80
2018-07-17T02:42:31.130Z,21.70
2018-07-17T02:45:06.535Z,21.60
2018-07-17T02:47:41.601Z,21.60
2018-07-17T02:52:51.543Z,21.60
2018-07-17T02:55:26.454Z,21.60
2018-07-17T02:58:02.123Z,21.60
2018-07-17T03:00:37.222Z,21.60
2018-07-17T03:03:12.888Z,21.50
2018-07-17T03:05:47.951Z,21.50
2018-07-17T03:08:22.978Z,21.50
2018-07-17T03:10:58.241Z,21.50
2018-07-17T03:13:33.850Z,21.60
2018-07-17T03:16:09.315Z,21.60
2018-07-17T03:18:44.244Z,21.60
2018-07-17T03:21:19.222Z,21.60
2018-07-17T03:23:54.357Z,21.60
2018-07-17T03:26:29.334Z,21.70
2018-07-17T03:29:04.886Z,21.70
2018-07-17T03:31:39.852Z,21.80
2018-07-17T03:34:15.709Z,21.90
2018-07-17T03:36:51.675Z,22.00
2018-07-17T03:39:26.779Z,22.00
2018-07-17T03:42:02.262Z,21.80
2018-07-17T03:44:37.377Z,21.70
2018-07-17T03:47:12.896Z,21.80
2018-07-17T03:49:47.902Z,21.70
2018-07-17T03:52:22.919Z,21.70
2018-07-17T03:54:57.783Z,21.80
2018-07-17T03:57:32.716Z,21.70
2018-07-17T04:00:08.385Z,21.70
2018-07-17T04:02:43.482Z,21.80
2018-07-17T04:05:19.288Z,21.80
2018-07-17T04:07:54.372Z,21.90
2018-07-17T04:10:29.552Z,21.90
2018-07-17T04:13:05.020Z,21.90
2018-07-17T04:15:40.227Z,21.80
2018-07-17T04:18:15.893Z,21.80
2018-07-17T04:20:51.056Z,21.50
2018-07-17T04:23:25.918Z,21.40
2018-07-17T04:26:00.980Z,21.50
2018-07-17T04:31:11.513Z,21.60
2018-07-17T04:33:46.691Z,21.60
2018-07-17T04:36:21.475Z,21.70
2018-07-17T04:38:56.831Z,21.70
2018-07-17T04:41:32.361Z,21.70
2018-07-17T04:44:07.659Z,21.70
2018-07-17T04:46:43.107Z,21.70
2018-07-17T04:49:18.501Z,21.60
2018-07-17T04:51:53.809Z,21.60
2018-07-17T04:54:29.932Z,21.60
2018-07-17T04:57:05.696Z,21.50
2018-07-17T04:59:40.914Z,21.60
2018-07-17T05:02:16.088Z,21.60
2018-07-17T05:04:51.097Z,21.70
2018-07-17T05:07:26.468Z,21.70
2018-07-17T05:10:02.679Z,21.70
2018-07-17T05:12:37.942Z,21.70
2018-07-17T05:15:13.124Z,21.70
2018-07-17T05:17:48.424Z,21.70
2018-07-17T05:20:24.391Z,21.70
2018-07-17T05:22:59.834Z,21.70
2018-07-17T05:28:10.382Z,21.70
2018-07-17T05:30:45.820Z,21.70
2018-07-17T05:33:21.951Z,21.70
2018-07-17T05:35:57.277Z,21.60
2018-07-17T05:38:33.766Z,21.70
2018-07-17T05:41:09.165Z,21.70
2018-07-17T05:43:44.102Z,21.70
2018-07-17T05:46:19.273Z,21.70
2018-07-17T05:48:54.698Z,21.70
2018-07-17T05:51:30.050Z,21.70
2018-07-17T05:54:05.166Z,21.70
2018-07-17T05:56:40.130Z,21.70
2018-07-17T05:59:15.783Z,21.70
2018-07-17T06:01:51.006Z,21.80
2018-07-17T06:04:27.841Z,21.90
2018-07-17T06:07:03.269Z,22.00
2018-07-17T06:09:38.311Z,22.10
2018-07-17T06:12:13.608Z,22.20
2018-07-17T06:14:48.673Z,22.30
2018-07-17T06:17:23.974Z,22.40
2018-07-17T06:19:59.483Z,22.50
2018-07-17T06:22:35.140Z,22.60
2018-07-17T06:25:10.873Z,22.60
2018-07-17T06:27:45.798Z,22.60
2018-07-17T06:30:21.148Z,22.70
2018-07-17T06:32:56.672Z,22.70
2018-07-17T06:35:32.290Z,22.80
2018-07-17T06:38:08.220Z,22.80
2018-07-17T06:40:43.269Z,22.90
2018-07-17T06:43:19.519Z,22.90
2018-07-17T06:45:55.017Z,23.00
2018-07-17T06:48:30.398Z,23.00
2018-07-17T06:51:05.646Z,23.00
2018-07-17T06:56:15.727Z,23.10
2018-07-17T06:58:50.736Z,23.10
2018-07-17T07:01:26.016Z,23.10
2018-07-17T07:04:01.318Z,23.10
2018-07-17T07:06:36.189Z,23.10
2018-07-17T07:09:11.634Z,23.00
2018-07-17T07:11:46.864Z,23.10
2018-07-17T07:16:56.782Z,23.10
2018-07-17T07:22:13.217Z,23.20
2018-07-17T07:24:48.392Z,23.10
2018-07-17T07:27:23.353Z,23.20
2018-07-17T07:29:58.315Z,23.20
2018-07-17T07:32:33.548Z,23.20
2018-07-17T07:35:08.843Z,23.20
2018-07-17T07:37:45.477Z,23.30
2018-07-17T07:40:20.879Z,23.40
2018-07-17T07:42:55.981Z,23.40
2018-07-17T07:45:30.948Z,23.40
2018-07-17T07:48:06.145Z,23.30
2018-07-17T07:50:41.446Z,23.40
2018-07-17T07:53:16.968Z,23.30
2018-07-17T07:55:52.601Z,23.30
2018-07-17T07:58:28.064Z,23.20
2018-07-17T08:01:03.503Z,23.20
2018-07-17T08:06:14.371Z,23.20
2018-07-17T08:08:49.315Z,23.20
2018-07-17T08:11:24.492Z,23.20
2018-07-17T08:13:59.579Z,23.30
2018-07-17T08:16:34.676Z,23.30
2018-07-17T08:19:09.653Z,23.30
2018-07-17T08:21:45.292Z,23.30
2018-07-17T08:24:21.461Z,23.40
2018-07-17T08:26:56.859Z,23.40
2018-07-17T08:29:32.270Z,23.50
2018-07-17T08:32:07.651Z,23.60
2018-07-17T08:34:42.872Z,23.70
2018-07-17T08:37:18.422Z,23.80
2018-07-17T08:39:53.716Z,23.90
2018-07-17T08:42:28.912Z,23.90
2018-07-17T08:45:04.062Z,24.10
2018-07-17T08:47:39.030Z,24.20
2018-07-17T08:50:14.009Z,24.30
2018-07-17T08:52:49.726Z,24.40
2018-07-17T08:55:24.561Z,24.40
2018-07-17T08:58:00.354Z,24.40
2018-07-17T09:00:35.685Z,24.50
2018-07-17T09:03:10.856Z,24.60
2018-07-17T09:05:45.987Z,24.60
2018-07-17T09:08:21.314Z,24.80
2018-07-17T09:10:56.297Z,24.80
2018-07-17T09:13:31.767Z,24.90
2018-07-17T09:16:06.736Z,25.10
2018-07-17T09:18:41.977Z,25.20
2018-07-17T09:21:16.949Z,25.20
2018-07-17T09:23:52.001Z,25.20
2018-07-17T09:26:27.595Z,25.30
2018-07-17T09:29:03.172Z,25.30
2018-07-17T09:31:38.604Z,25.40
2018-07-17T09:34:13.937Z,25.50
2018-07-17T09:36:49.399Z,25.50
2018-07-17T09:39:24.496Z,25.50
2018-07-17T09:41:59.504Z,25.60
2018-07-17T09:44:34.593Z,25.60
2018-07-17T09:47:09.756Z,25.60
2018-07-17T09:49:44.599Z,25.60
2018-07-17T09:52:19.830Z,25.60
2018-07-17T09:54:55.202Z,25.60
2018-07-17T09:57:30.404Z,25.60
2018-07-17T10:00:05.357Z,25.70
2018-07-17T10:02:40.471Z,25.60
2018-07-17T10:05:15.927Z,25.60
2018-07-17T10:07:50.843Z,25.70
2018-07-17T10:10:26.041Z,25.70
2018-07-17T10:13:01.010Z,25.80
2018-07-17T10:15:36.547Z,25.90
2018-07-17T10:18:12.158Z,26.00
2018-07-17T10:20:48.199Z,26.00
2018-07-17T10:23:23.208Z,26.10
2018-07-17T10:25:58.168Z,26.10
2018-07-17T10:28:33.163Z,26.10
2018-07-17T10:31:08.066Z,26.20
2018-07-17T10:33:43.453Z,26.20
2018-07-17T10:38:53.438Z,26.30
2018-07-17T10:41:28.545Z,26.30
2018-07-17T10:44:03.573Z,26.40
2018-07-17T10:46:39.195Z,26.40
2018-07-17T10:49:14.818Z,26.40
2018-07-17T10:51:49.787Z,26.50
2018-07-17T10:54:25.041Z,26.60
2018-07-17T10:57:00.576Z,26.60
2018-07-17T10:59:35.520Z,26.70
2018-07-17T11:02:10.593Z,26.70
2018-07-17T11:04:45.631Z,26.70
2018-07-17T11:07:21.277Z,26.70
2018-07-17T11:09:56.926Z,26.80
2018-07-17T11:12:32.327Z,26.80
2018-07-17T11:15:07.742Z,26.90
2018-07-17T11:17:43.574Z,26.90
2018-07-17T11:20:18.641Z,26.90
2018-07-17T11:22:53.755Z,27.00
2018-07-17T11:25:28.681Z,27.10
2018-07-17T11:28:03.786Z,27.10
2018-07-17T11:30:38.861Z,27.10
2018-07-17T11:33:13.933Z,27.10
2018-07-17T11:35:49.102Z,27.10
2018-07-17T11:38:24.265Z,27.20
2018-07-17T11:40:59.067Z,27.20
2018-07-17T11:43:34.162Z,27.20
2018-07-17T11:46:09.078Z,27.20
2018-07-17T11:48:43.976Z,27.20
2018-07-17T11:51:19.474Z,27.20
2018-07-17T11:53:54.568Z,27.20
2018-07-17T11:56:29.709Z,27.30
2018-07-17T12:01:46.340Z,27.40
2018-07-17T12:04:21.338Z,27.40
2018-07-17T12:06:56.179Z,27.40
2018-07-17T12:09:31.714Z,27.40
2018-07-17T12:12:07.370Z,27.50
2018-07-17T12:14:42.391Z,27.60
2018-07-17T12:17:17.963Z,27.80
2018-07-17T12:19:53.440Z,28.00
2018-07-17T12:22:28.341Z,28.10
2018-07-17T12:25:03.404Z,28.20
2018-07-17T12:27:38.257Z,28.40
2018-07-17T12:30:13.546Z,28.40
2018-07-17T12:32:48.894Z,28.40
2018-07-17T12:35:23.863Z,28.50
2018-07-17T12:37:59.146Z,28.50
2018-07-17T12:40:34.353Z,28.50
2018-07-17T12:45:44.762Z,28.50
2018-07-17T12:48:19.781Z,28.50
2018-07-17T12:50:54.874Z,28.60
2018-07-17T12:53:30.268Z,28.70
2018-07-17T12:56:05.646Z,28.70
2018-07-17T12:58:41.286Z,28.60
2018-07-17T13:01:16.748Z,28.60
2018-07-17T13:03:51.739Z,28.50
2018-07-17T13:06:27.740Z,28.50
2018-07-17T13:09:03.138Z,28.60
2018-07-17T13:11:38.270Z,28.60
2018-07-17T13:14:13.575Z,28.60
2018-07-17T13:16:48.366Z,28.50
2018-07-17T13:19:23.456Z,28.50
2018-07-17T13:21:58.435Z,28.50
2018-07-17T13:24:34.255Z,28.50
2018-07-17T13:27:10.097Z,28.60
2018-07-17T13:29:45.366Z,28.70
2018-07-17T13:32:20.736Z,28.80
2018-07-17T13:34:55.890Z,28.80
2018-07-17T13:37:31.140Z,29.00
2018-07-17T13:40:06.416Z,29.10
2018-07-17T13:42:42.678Z,29.20
2018-07-17T13:45:17.984Z,29.10
2018-07-17T13:47:53.311Z,29.00
2018-07-17T13:50:28.183Z,28.90
2018-07-17T13:53:04.230Z,28.80
2018-07-17T13:55:39.666Z,28.80
2018-07-17T13:58:14.826Z,28.70
2018-07-17T14:00:50.388Z,28.70
2018-07-17T14:03:25.588Z,28.80
2018-07-17T14:06:00.769Z,28.80
2018-07-17T14:08:36.095Z,28.80
2018-07-17T14:11:11.282Z,28.80
2018-07-17T14:13:46.488Z,28.80
2018-07-17T14:16:21.862Z,28.80
2018-07-17T14:18:57.223Z,28.80
2018-07-17T14:21:32.331Z,28.70
2018-07-17T14:24:07.930Z,28.70
2018-07-17T14:26:43.062Z,28.80
2018-07-17T14:29:18.322Z,28.90
2018-07-17T14:31:53.169Z,29.00
2018-07-17T14:34:28.390Z,29.00
2018-07-17T14:37:03.780Z,29.00
2018-07-17T14:39:39.010Z,29.00
2018-07-17T14:42:14.336Z,29.00
2018-07-17T14:44:49.541Z,29.10
2018-07-17T14:47:26.024Z,29.20
2018-07-17T14:50:00.815Z,29.20
2018-07-17T14:52:36.298Z,29.10
2018-07-17T14:55:12.417Z,28.90
2018-07-17T14:57:47.495Z,28.80
2018-07-17T15:00:22.316Z,28.80
2018-07-17T15:02:57.382Z,28.90
2018-07-17T15:05:32.332Z,29.00
2018-07-17T15:08:07.349Z,29.00
2018-07-17T15:10:42.501Z,29.10
2018-07-17T15:13:18.123Z,29.10
2018-07-17T15:18:28.418Z,28.90
2018-07-17T15:21:03.929Z,28.90
2018-07-17T15:23:41.768Z,28.80
2018-07-17T15:26:16.829Z,28.80
2018-07-17T15:28:51.857Z,28.80
2018-07-17T15:31:27.064Z,28.80
2018-07-17T15:36:36.566Z,28.60
2018-07-17T15:39:12.563Z,28.50
2018-07-17T15:41:47.468Z,28.40
2018-07-17T15:46:57.418Z,28.60
2018-07-17T15:49:32.882Z,28.60
2018-07-17T15:52:07.839Z,28.80
2018-07-17T15:54:43.088Z,28.90
2018-07-17T15:57:18.235Z,29.00
2018-07-17T15:59:53.373Z,28.90
2018-07-17T16:02:29.104Z,28.80
2018-07-17T16:05:04.155Z,28.80
2018-07-17T16:07:39.149Z,28.90
2018-07-17T16:12:48.746Z,28.90
2018-07-17T16:15:23.989Z,28.80
2018-07-17T16:17:59.139Z,28.70
2018-07-17T16:20:34.200Z,28.60
2018-07-17T16:23:09.363Z,28.60
2018-07-17T16:25:44.475Z,28.70
2018-07-17T16:28:19.529Z,28.80
2018-07-17T16:30:54.546Z,29.00
2018-07-17T16:33:29.764Z,28.80
2018-07-17T16:36:06.159Z,28.60
2018-07-17T16:38:40.964Z,28.40
2018-07-17T16:41:15.969Z,28.30
2018-07-17T16:43:51.414Z,28.10
2018-07-17T16:46:27.057Z,28.00
2018-07-17T16:49:02.754Z,28.10
2018-07-17T16:51:37.805Z,28.30
2018-07-17T16:54:13.328Z,28.30
2018-07-17T16:56:48.927Z,28.40
2018-07-17T16:59:24.114Z,28.50
2018-07-17T17:01:59.528Z,28.50
2018-07-17T17:04:34.376Z,28.40
2018-07-17T17:07:09.808Z,28.20
2018-07-17T17:09:45.007Z,28.10
2018-07-17T17:12:19.976Z,28.00
2018-07-17T17:14:55.365Z,28.00
2018-07-17T17:17:30.721Z,28.00
2018-07-17T17:20:05.994Z,28.00
2018-07-17T17:22:41.074Z,28.00
2018-07-17T17:25:16.075Z,28.00
2018-07-17T17:27:51.515Z,28.00
2018-07-17T17:30:26.535Z,28.00
2018-07-17T17:33:02.043Z,27.90
2018-07-17T17:35:37.011Z,27.90
2018-07-17T17:38:12.187Z,27.90
2018-07-17T17:40:47.141Z,27.80
2018-07-17T17:43:22.390Z,27.70
2018-07-17T17:45:58.082Z,27.70
2018-07-17T17:48:33.244Z,27.70
2018-07-17T17:51:08.778Z,27.80
2018-07-17T17:53:44.252Z,27.70
2018-07-17T17:56:21.066Z,27.70
2018-07-17T17:58:56.674Z,27.80
2018-07-17T18:01:34.076Z,27.80
2018-07-17T18:04:09.625Z,27.90
2018-07-17T18:06:44.465Z,27.80
2018-07-17T18:09:19.616Z,27.60
2018-07-17T18:11:55.058Z,27.50
2018-07-17T18:14:31.465Z,27.40
2018-07-17T18:17:07.821Z,27.40
2018-07-17T18:19:43.479Z,27.20
2018-07-17T18:22:18.799Z,27.10
2018-07-17T18:24:54.332Z,27.00
2018-07-17T18:27:29.976Z,27.00
2018-07-17T18:30:05.718Z,26.90
2018-07-17T18:32:41.042Z,26.70
2018-07-17T18:35:19.530Z,26.60
2018-07-17T18:37:54.624Z,26.40
2018-07-17T18:40:29.916Z,26.30
2018-07-17T18:43:05.094Z,26.20
2018-07-17T18:48:14.977Z,26.10
2018-07-17T18:50:50.513Z,25.90
2018-07-17T18:53:26.090Z,25.80
2018-07-17T18:56:01.585Z,25.80
2018-07-17T18:58:37.252Z,25.80
2018-07-17T19:01:13.130Z,25.70
2018-07-17T19:03:48.247Z,25.70
2018-07-17T19:06:23.719Z,25.50
2018-07-17T19:08:58.648Z,25.40
2018-07-17T19:11:34.125Z,25.40
2018-07-17T19:14:09.685Z,25.30
2018-07-17T19:16:44.894Z,25.30
2018-07-17T19:19:20.547Z,25.20
2018-07-17T19:21:55.657Z,25.10
2018-07-17T19:24:30.906Z,25.00
2018-07-17T19:27:06.232Z,25.00
2018-07-17T19:29:41.792Z,24.90
2018-07-17T19:32:16.706Z,24.90
2018-07-17T19:34:51.837Z,24.80
2018-07-17T19:37:27.092Z,24.80
2018-07-17T19:40:02.019Z,24.70
2018-07-17T19:42:37.488Z,24.60
2018-07-17T19:45:12.363Z,24.60
2018-07-17T19:47:47.860Z,24.40
2018-07-17T19:50:22.944Z,24.40
2018-07-17T19:52:58.267Z,24.40
2018-07-17T19:55:33.710Z,24.40
2018-07-17T19:58:09.232Z,24.30
2018-07-17T20:00:44.326Z,24.20
2018-07-17T20:03:19.737Z,24.10
2018-07-17T20:05:55.070Z,24.10
2018-07-17T20:08:29.956Z,24.00
2018-07-17T20:11:04.995Z,24.00
2018-07-17T20:13:40.321Z,24.00
2018-07-17T20:16:15.298Z,23.90
2018-07-17T20:18:50.476Z,23.80
2018-07-17T20:21:26.163Z,23.70
2018-07-17T20:24:01.540Z,23.70
2018-07-17T20:26:37.136Z,23.70
2018-07-17T20:29:13.731Z,23.60
2018-07-17T20:31:48.824Z,23.40
2018-07-17T20:34:23.927Z,23.30
2018-07-17T20:36:59.162Z,23.20
2018-07-17T20:39:34.425Z,23.20
2018-07-17T20:42:09.512Z,23.20
2018-07-17T20:44:44.589Z,23.30
2018-07-17T20:47:19.811Z,23.30
2018-07-17T20:49:55.093Z,23.20
2018-07-17T20:52:30.745Z,23.20
2018-07-17T20:55:05.870Z,23.20
2018-07-17T20:57:41.040Z,23.20
2018-07-17T21:00:16.077Z,23.20
2018-07-17T21:02:51.476Z,23.20
2018-07-17T21:05:26.611Z,23.10
2018-07-17T21:08:01.604Z,23.10
2018-07-17T21:10:36.591Z,23.10
2018-07-17T21:13:11.923Z,23.10
2018-07-17T21:15:47.203Z,23.10
2018-07-17T21:18:22.409Z,23.00
2018-07-17T21:20:57.560Z,23.00
2018-07-17T21:26:07.283Z,22.70
2018-07-17T21:28:42.159Z,22.70
2018-07-17T21:31:17.061Z,22.60
2018-07-17T21:33:52.329Z,22.50
2018-07-17T21:36:28.020Z,22.60
2018-07-17T21:39:03.462Z,22.50
2018-07-17T21:41:38.632Z,22.40
2018-07-17T21:44:13.723Z,22.40
2018-07-17T21:46:48.798Z,22.40
2018-07-17T21:49:23.786Z,22.30
2018-07-17T21:51:58.911Z,22.40
2018-07-17T21:54:33.889Z,22.30
2018-07-17T21:57:09.047Z,22.20
2018-07-17T21:59:43.945Z,22.20
2018-07-17T22:02:19.092Z,22.20
2018-07-17T22:04:54.476Z,22.20
2018-07-17T22:07:29.531Z,22.20
2018-07-17T22:10:04.979Z,22.30
2018-07-17T22:12:40.143Z,22.20
2018-07-17T22:15:15.369Z,22.20
2018-07-17T22:17:50.299Z,22.00
2018-07-17T22:20:25.560Z,22.00
2018-07-17T22:23:00.733Z,22.10
2018-07-17T22:25:35.860Z,22.10
2018-07-17T22:28:10.907Z,22.10
2018-07-17T22:30:45.810Z,22.10
2018-07-17T22:33:20.806Z,22.00
2018-07-17T22:35:56.113Z,21.90
2018-07-17T22:38:31.193Z,21.80
2018-07-17T22:41:06.662Z,21.80
2018-07-17T22:43:41.798Z,21.90
2018-07-17T22:46:17.178Z,21.70
2018-07-17T22:48:52.389Z,21.60
2018-07-17T22:51:27.144Z,21.50
2018-07-17T22:54:02.483Z,21.50
2018-07-17T22:56:37.586Z,21.40
2018-07-17T22:59:12.810Z,21.30
2018-07-17T23:01:48.379Z,21.10
2018-07-17T23:04:23.268Z,21.10
2018-07-17T23:06:58.337Z,21.00
2018-07-17T23:09:33.616Z,21.00
2018-07-17T23:12:08.822Z,21.00
2018-07-17T23:14:43.853Z,21.00
2018-07-17T23:17:18.716Z,21.00
2018-07-17T23:19:53.446Z,21.00
2018-07-17T23:22:40.440Z,20.90
2018-07-17T23:25:15.167Z,21.00
2018-07-17T23:27:50.364Z,20.80
2018-07-17T23:30:25.875Z,20.80
2018-07-17T23:33:01.114Z,20.90
2018-07-17T23:35:36.098Z,21.00
2018-07-17T23:38:11.230Z,21.10
2018-07-17T23:40:46.045Z,21.00
2018-07-17T23:43:21.698Z,21.00
2018-07-17T23:45:56.702Z,21.00
2018-07-17T23:48:31.671Z,20.90
2018-07-17T23:51:06.661Z,20.90
2018-07-17T23:53:41.423Z,20.90
2018-07-17T23:56:16.470Z,20.80
2018-07-17T23:58:51.345Z,20.70
